createdAt,value
2023-03-25T00:00:25.642Z,76.23
2023-03-25T00:02:53.729Z,76.41
2023-03-25T00:05:22.772Z,76.25
2023-03-25T00:07:52.156Z,76.40
2023-03-25T00:10:20.685Z,76.19
2023-03-25T00:12:48.551Z,76.47
2023-03-25T00:15:17.948Z,76.32
2023-03-25T00:17:47.243Z,76.67
2023-03-25T00:20:15.291Z,76.51
2023-03-25T00:22:44.640Z,76.71
2023-03-25T00:25:17.438Z,76.49
2023-03-25T00:27:46.663Z,76.46
2023-03-25T00:30:16.680Z,76.37
2023-03-25T00:32:46.125Z,76.45
2023-03-25T00:35:19.806Z,76.67
2023-03-25T00:37:57.496Z,76.77
2023-03-25T00:40:25.916Z,76.56
2023-03-25T00:42:53.669Z,76.45
2023-03-25T00:45:21.532Z,76.43
2023-03-25T00:47:49.782Z,76.76
2023-03-25T00:50:19.340Z,76.64
2023-03-25T00:52:47.272Z,76.41
2023-03-25T00:55:15.656Z,76.53
2023-03-25T00:57:43.576Z,76.76
2023-03-25T01:00:15.420Z,76.71
2023-03-25T01:02:44.024Z,76.69
2023-03-25T01:05:12.231Z,76.73
2023-03-25T01:07:42.750Z,76.68
2023-03-25T01:10:11.683Z,76.87
2023-03-25T01:12:39.460Z,76.98
2023-03-25T01:15:08.771Z,76.97
2023-03-25T01:17:40.840Z,76.61
2023-03-25T01:20:10.087Z,76.98
2023-03-25T01:22:37.916Z,76.53
2023-03-25T01:25:07.608Z,76.75
2023-03-25T01:27:35.571Z,76.58
2023-03-25T01:30:03.896Z,77.11
2023-03-25T01:32:31.759Z,77.24
2023-03-25T01:35:00.396Z,77.09
2023-03-25T01:37:29.560Z,76.83
2023-03-25T01:39:57.351Z,76.98
2023-03-25T01:42:26.735Z,77.12
2023-03-25T01:45:22.412Z,77.25
2023-03-25T01:47:58.488Z,77.28
2023-03-25T01:50:29.219Z,77.09
2023-03-25T01:52:59.600Z,77.41
2023-03-25T01:55:28.434Z,77.29
2023-03-25T01:57:59.804Z,77.40
2023-03-25T02:00:27.951Z,77.54
2023-03-25T02:02:59.930Z,77.39
2023-03-25T02:05:35.971Z,77.35
2023-03-25T02:08:09.288Z,77.17
2023-03-25T02:10:38.217Z,77.41
2023-03-25T02:13:08.681Z,77.26
2023-03-25T02:16:04.609Z,76.97
2023-03-25T02:18:44.875Z,77.04
2023-03-25T02:21:46.323Z,77.20
2023-03-25T02:24:54.931Z,77.64
2023-03-25T02:27:42.078Z,77.42
2023-03-25T02:30:46.853Z,77.23
2023-03-25T02:33:48.004Z,77.32
2023-03-25T02:37:03.377Z,77.38
2023-03-25T02:39:40.647Z,77.50
2023-03-25T02:42:16.877Z,77.85
2023-03-25T02:44:53.788Z,77.82
2023-03-25T02:47:26.218Z,77.18
2023-03-25T02:49:59.374Z,77.85
2023-03-25T02:52:31.280Z,77.46
2023-03-25T02:55:04.928Z,77.89
2023-03-25T02:57:35.951Z,77.45
2023-03-25T03:00:10.700Z,77.52
2023-03-25T03:02:39.617Z,77.94
2023-03-25T03:05:23.438Z,77.81
2023-03-25T03:07:56.463Z,77.96
2023-03-25T03:10:32.366Z,77.63
2023-03-25T03:13:13.419Z,77.73
2023-03-25T03:15:53.041Z,77.63
2023-03-25T03:18:34.475Z,77.60
2023-03-25T03:21:12.993Z,78.11
2023-03-25T03:23:52.397Z,77.84
2023-03-25T03:26:29.502Z,78.25
2023-03-25T03:29:04.545Z,78.12
2023-03-25T03:31:48.450Z,77.66
2023-03-25T03:34:34.399Z,78.20
2023-03-25T03:37:04.733Z,77.78
2023-03-25T03:39:35.896Z,77.66
2023-03-25T03:42:10.674Z,78.13
2023-03-25T03:44:44.235Z,77.64
2023-03-25T03:47:15.754Z,78.27
2023-03-25T03:49:47.949Z,77.89
2023-03-25T03:52:18.958Z,78.09
2023-03-25T03:54:51.114Z,78.08
2023-03-25T03:57:25.911Z,78.13
2023-03-25T03:59:59.404Z,78.04
2023-03-25T04:02:35.134Z,77.81
2023-03-25T04:05:03.756Z,78.46
2023-03-25T04:07:39.113Z,78.08
2023-03-25T04:10:15.745Z,77.92
2023-03-25T04:12:47.943Z,78.04
2023-03-25T04:15:16.964Z,78.19
2023-03-25T04:17:45.237Z,78.44
2023-03-25T04:20:16.399Z,78.14
2023-03-25T04:22:45.829Z,78.28
2023-03-25T04:25:14.831Z,78.17
2023-03-25T04:27:49.019Z,77.93
2023-03-25T04:30:19.229Z,78.43
2023-03-25T04:32:47.998Z,78.59
2023-03-25T04:35:16.960Z,78.56
2023-03-25T04:37:45.743Z,78.35
2023-03-25T04:40:16.345Z,78.17
2023-03-25T04:42:46.478Z,78.38
2023-03-25T04:45:16.913Z,78.33
2023-03-25T04:47:48.733Z,78.10
2023-03-25T04:50:22.188Z,78.10
2023-03-25T04:52:50.516Z,78.79
2023-03-25T04:55:19.557Z,78.74
2023-03-25T04:57:48.333Z,78.18
2023-03-25T05:00:18.153Z,78.84
2023-03-25T05:02:48.669Z,78.73
2023-03-25T05:05:18.602Z,78.50
2023-03-25T05:07:47.290Z,78.21
2023-03-25T05:10:15.380Z,78.44
2023-03-25T05:12:43.320Z,78.18
2023-03-25T05:15:12.251Z,78.39
2023-03-25T05:17:40.122Z,78.90
2023-03-25T05:20:10.654Z,78.31
2023-03-25T05:22:39.355Z,78.49
2023-03-25T05:25:08.011Z,78.29
2023-03-25T05:27:36.556Z,78.68
2023-03-25T05:30:05.188Z,78.30
2023-03-25T05:32:33.530Z,78.49
2023-03-25T05:35:01.684Z,78.69
2023-03-25T05:37:30.967Z,78.65
2023-03-25T05:39:58.805Z,78.86
2023-03-25T05:42:27.410Z,78.64
2023-03-25T05:44:55.489Z,78.79
2023-03-25T05:47:25.301Z,78.93
2023-03-25T05:49:54.467Z,78.47
2023-03-25T05:52:24.596Z,78.98
2023-03-25T05:54:54.053Z,78.89
2023-03-25T05:57:21.858Z,78.67
2023-03-25T05:59:49.611Z,78.54
2023-03-25T06:02:18.435Z,78.88
2023-03-25T06:04:47.305Z,78.67
2023-03-25T06:07:19.965Z,78.68
2023-03-25T06:09:48.371Z,78.72
2023-03-25T06:12:19.887Z,78.58
2023-03-25T06:14:48.451Z,78.95
2023-03-25T06:17:19.011Z,78.91
2023-03-25T06:19:47.342Z,78.66
2023-03-25T06:22:15.713Z,78.84
2023-03-25T06:24:43.964Z,78.93
2023-03-25T06:27:15.768Z,79.01
2023-03-25T06:29:45.675Z,79.00
2023-03-25T06:32:15.538Z,79.32
2023-03-25T06:34:44.806Z,78.93
2023-03-25T06:37:12.588Z,79.20
2023-03-25T06:39:40.336Z,79.01
2023-03-25T06:42:08.382Z,78.76
2023-03-25T06:44:36.232Z,79.27
2023-03-25T06:47:06.687Z,78.91
2023-03-25T06:49:34.548Z,79.11
2023-03-25T06:52:02.270Z,79.32
2023-03-25T06:54:30.748Z,79.01
2023-03-25T06:56:58.528Z,79.08
2023-03-25T06:59:26.356Z,78.86
2023-03-25T07:01:54.393Z,79.28
2023-03-25T07:04:23.587Z,79.18
2023-03-25T07:06:51.389Z,79.43
2023-03-25T07:09:19.176Z,79.57
2023-03-25T07:11:47.179Z,79.23
2023-03-25T07:14:14.981Z,79.22
2023-03-25T07:16:42.822Z,79.24
2023-03-25T07:19:10.899Z,79.07
2023-03-25T07:21:40.054Z,79.76
2023-03-25T07:24:08.387Z,79.20
2023-03-25T07:26:36.312Z,79.47
2023-03-25T07:29:04.475Z,79.28
2023-03-25T07:31:32.221Z,79.44
2023-03-25T07:34:00.831Z,79.67
2023-03-25T07:36:28.646Z,79.60
2023-03-25T07:38:57.796Z,79.95
2023-03-25T07:41:25.786Z,79.23
2023-03-25T07:43:53.554Z,79.66
2023-03-25T07:46:21.747Z,79.18
2023-03-25T07:48:49.675Z,79.27
2023-03-25T07:51:17.582Z,79.32
2023-03-25T07:53:46.440Z,79.63
2023-03-25T07:56:15.949Z,79.63
2023-03-25T07:58:44.483Z,79.68
2023-03-25T08:01:12.315Z,79.60
2023-03-25T08:03:40.379Z,79.68
2023-03-25T08:06:09.722Z,79.48
2023-03-25T08:08:37.815Z,79.72
2023-03-25T08:11:06.164Z,79.71
2023-03-25T08:13:35.358Z,80.08
2023-03-25T08:16:03.092Z,79.66
2023-03-25T08:18:31.611Z,79.84
2023-03-25T08:20:59.366Z,79.71
2023-03-25T08:23:27.224Z,79.45
2023-03-25T08:25:55.821Z,79.50
2023-03-25T08:28:24.226Z,79.91
2023-03-25T08:30:55.495Z,79.59
2023-03-25T08:33:27.318Z,79.67
2023-03-25T08:35:58.488Z,79.67
2023-03-25T08:38:34.468Z,79.74
2023-03-25T08:41:04.202Z,79.77
2023-03-25T08:43:32.929Z,79.71
2023-03-25T08:46:02.134Z,79.57
2023-03-25T08:48:30.364Z,79.53
2023-03-25T08:50:58.740Z,79.53
2023-03-25T08:53:27.034Z,79.55
2023-03-25T08:56:02.051Z,79.71
2023-03-25T08:58:29.951Z,79.75
2023-03-25T09:00:58.849Z,79.95
2023-03-25T09:03:28.169Z,79.74
2023-03-25T09:05:56.000Z,79.88
2023-03-25T09:08:23.979Z,79.88
2023-03-25T09:10:51.850Z,80.09
2023-03-25T09:13:19.634Z,79.94
2023-03-25T09:15:47.736Z,79.74
2023-03-25T09:18:15.635Z,80.26
2023-03-25T09:20:47.699Z,79.76
2023-03-25T09:23:15.748Z,79.73
2023-03-25T09:25:44.428Z,79.69
2023-03-25T09:28:12.225Z,79.99
2023-03-25T09:30:40.036Z,79.94
2023-03-25T09:33:08.685Z,80.31
2023-03-25T09:35:36.542Z,79.92
2023-03-25T09:38:05.776Z,79.94
2023-03-25T09:40:33.598Z,80.00
2023-03-25T09:43:08.859Z,79.87
2023-03-25T09:45:38.860Z,80.02
2023-03-25T09:48:19.456Z,79.82
2023-03-25T09:50:49.058Z,79.98
2023-03-25T09:53:27.464Z,79.87
2023-03-25T09:55:57.851Z,79.90
2023-03-25T09:58:31.117Z,80.15
2023-03-25T10:01:07.010Z,80.22
2023-03-25T10:03:40.338Z,79.94
2023-03-25T10:06:14.674Z,80.37
2023-03-25T10:09:00.624Z,80.39
2023-03-25T10:11:40.163Z,79.97
2023-03-25T10:14:12.600Z,79.86
2023-03-25T10:16:50.906Z,80.23
2023-03-25T10:19:30.020Z,80.39
2023-03-25T10:22:04.685Z,79.99
2023-03-25T10:24:39.251Z,80.21
2023-03-25T10:27:15.641Z,79.97
2023-03-25T10:29:50.828Z,80.02
2023-03-25T10:32:24.102Z,80.25
2023-03-25T10:34:56.108Z,79.94
2023-03-25T10:37:29.788Z,80.12
2023-03-25T10:40:08.958Z,79.94
2023-03-25T10:42:41.375Z,80.11
2023-03-25T10:45:14.216Z,80.08
2023-03-25T10:47:44.776Z,80.43
2023-03-25T10:50:16.915Z,80.32
2023-03-25T10:52:45.386Z,79.83
2023-03-25T10:55:25.281Z,80.01
2023-03-25T10:57:55.008Z,79.83
2023-03-25T11:00:26.321Z,80.09
2023-03-25T11:02:55.171Z,80.22
2023-03-25T11:05:28.277Z,79.80
2023-03-25T11:07:59.736Z,80.01
2023-03-25T11:10:32.420Z,80.17
2023-03-25T11:13:04.019Z,80.25
2023-03-25T11:15:34.858Z,80.01
2023-03-25T11:18:08.062Z,79.86
2023-03-25T11:20:39.629Z,79.81
2023-03-25T11:23:09.299Z,80.15
2023-03-25T11:25:43.579Z,79.82
2023-03-25T11:28:16.980Z,80.32
2023-03-25T11:31:14.055Z,79.88
2023-03-25T11:33:43.228Z,79.88
2023-03-25T11:36:14.064Z,80.17
2023-03-25T11:38:42.051Z,80.03
2023-03-25T11:41:14.593Z,80.08
2023-03-25T11:43:42.579Z,80.06
2023-03-25T11:46:12.624Z,80.15
2023-03-25T11:48:42.835Z,80.20
2023-03-25T11:51:15.432Z,79.95
2023-03-25T11:53:48.012Z,79.97
2023-03-25T11:56:22.461Z,79.72
2023-03-25T11:58:52.842Z,79.93
2023-03-25T12:01:27.957Z,80.28
2023-03-25T12:04:08.373Z,79.86
2023-03-25T12:06:36.571Z,79.96
2023-03-25T12:09:11.728Z,79.92
2023-03-25T12:11:46.781Z,79.83
2023-03-25T12:14:27.324Z,80.00
2023-03-25T12:17:05.469Z,80.39
2023-03-25T12:19:43.562Z,80.00
2023-03-25T12:22:26.635Z,80.48
2023-03-25T12:25:06.889Z,80.24
2023-03-25T12:27:46.237Z,80.47
2023-03-25T12:30:26.557Z,80.17
2023-03-25T12:33:05.126Z,80.14
2023-03-25T12:35:42.762Z,80.25
2023-03-25T12:38:23.098Z,80.36
2023-03-25T12:41:18.583Z,80.49
2023-03-25T12:43:59.534Z,80.31
2023-03-25T12:46:44.061Z,80.29
2023-03-25T12:49:27.952Z,80.63
2023-03-25T12:52:05.810Z,80.39
2023-03-25T12:54:46.395Z,80.59
2023-03-25T12:57:24.800Z,80.24
2023-03-25T13:00:09.126Z,80.72
2023-03-25T13:03:20.974Z,80.47
2023-03-25T13:05:55.634Z,80.56
2023-03-25T13:08:29.288Z,80.63
2023-03-25T13:11:02.697Z,80.46
2023-03-25T13:13:33.765Z,80.68
2023-03-25T13:16:09.340Z,80.52
2023-03-25T13:18:41.373Z,80.61
2023-03-25T13:21:15.578Z,80.27
2023-03-25T13:23:46.272Z,80.61
2023-03-25T13:26:18.742Z,80.42
2023-03-25T13:28:49.408Z,80.61
2023-03-25T13:31:23.318Z,80.24
2023-03-25T13:33:55.896Z,80.61
2023-03-25T13:36:29.381Z,80.47
2023-03-25T13:39:00.403Z,80.63
2023-03-25T13:41:35.428Z,80.43
2023-03-25T13:44:09.178Z,80.65
2023-03-25T13:46:42.257Z,80.38
2023-03-25T13:49:19.546Z,80.21
2023-03-25T13:51:47.985Z,80.51
2023-03-25T13:54:22.542Z,80.59
2023-03-25T13:57:16.040Z,80.24
2023-03-25T14:00:10.250Z,80.56
2023-03-25T14:02:58.169Z,80.30
2023-03-25T14:05:56.522Z,80.76
2023-03-25T14:08:50.683Z,80.35
2023-03-25T14:11:28.081Z,80.19
2023-03-25T14:14:01.647Z,80.13
2023-03-25T14:16:34.599Z,80.60
2023-03-25T14:19:08.186Z,80.72
2023-03-25T14:21:43.081Z,80.58
2023-03-25T14:24:15.111Z,80.63
2023-03-25T14:26:48.062Z,80.47
2023-03-25T14:29:26.251Z,80.31
2023-03-25T14:32:07.556Z,80.35
2023-03-25T14:34:40.610Z,80.33
2023-03-25T14:37:31.454Z,80.66
2023-03-25T14:40:07.315Z,80.37
2023-03-25T14:42:43.776Z,80.41
2023-03-25T14:45:42.780Z,80.38
2023-03-25T14:48:26.143Z,80.54
2023-03-25T14:51:20.888Z,80.66
2023-03-25T14:53:57.155Z,80.31
2023-03-25T14:56:27.311Z,80.50
2023-03-25T14:58:58.716Z,80.14
2023-03-25T15:01:34.609Z,80.62
2023-03-25T15:04:15.565Z,80.39
2023-03-25T15:06:46.096Z,80.71
2023-03-25T15:09:19.375Z,80.43
2023-03-25T15:11:56.515Z,80.61
2023-03-25T15:14:29.765Z,80.66
2023-03-25T15:17:01.965Z,80.12
2023-03-25T15:19:29.952Z,80.11
2023-03-25T15:22:22.398Z,80.50
2023-03-25T15:24:59.594Z,80.58
2023-03-25T15:28:01.762Z,80.44
2023-03-25T15:30:51.826Z,80.57
2023-03-25T15:33:36.803Z,80.34
2023-03-25T15:36:25.008Z,80.23
2023-03-25T15:39:09.444Z,80.18
2023-03-25T15:42:15.677Z,80.43
2023-03-25T15:45:24.973Z,80.60
2023-03-25T15:48:28.798Z,80.07
2023-03-25T15:51:10.872Z,80.04
2023-03-25T15:54:03.561Z,80.06
2023-03-25T15:56:35.105Z,80.48
2023-03-25T15:59:07.082Z,79.88
2023-03-25T16:01:39.233Z,80.16
2023-03-25T16:04:16.617Z,80.43
2023-03-25T16:06:48.463Z,80.30
2023-03-25T16:09:21.348Z,80.14
2023-03-25T16:11:59.246Z,80.24
2023-03-25T16:14:31.552Z,80.03
2023-03-25T16:17:02.282Z,79.93
2023-03-25T16:19:36.140Z,80.09
2023-03-25T16:22:08.408Z,80.60
2023-03-25T16:24:37.594Z,80.42
2023-03-25T16:27:11.487Z,79.99
2023-03-25T16:29:41.393Z,80.66
2023-03-25T16:32:19.729Z,80.17
2023-03-25T16:34:47.868Z,80.03
2023-03-25T16:37:17.996Z,80.51
2023-03-25T16:39:53.482Z,79.98
2023-03-25T16:42:27.222Z,80.27
2023-03-25T16:44:55.596Z,80.10
2023-03-25T16:47:24.415Z,80.30
2023-03-25T16:49:56.209Z,80.45
2023-03-25T16:52:28.073Z,79.96
2023-03-25T16:55:32.060Z,80.64
2023-03-25T16:58:02.907Z,80.09
2023-03-25T17:00:44.021Z,80.17
2023-03-25T17:03:21.198Z,80.37
2023-03-25T17:05:59.494Z,80.39
2023-03-25T17:08:28.644Z,80.22
2023-03-25T17:11:00.440Z,80.12
2023-03-25T17:13:32.753Z,79.94
2023-03-25T17:16:01.161Z,80.08
2023-03-25T17:18:32.745Z,80.04
2023-03-25T17:21:01.978Z,80.24
2023-03-25T17:23:36.465Z,80.33
2023-03-25T17:26:08.234Z,80.53
2023-03-25T17:28:39.288Z,80.58
2023-03-25T17:31:33.155Z,80.30
2023-03-25T17:34:05.420Z,80.22
2023-03-25T17:36:35.518Z,80.12
2023-03-25T17:39:06.015Z,80.53
2023-03-25T17:41:40.113Z,80.18
2023-03-25T17:44:08.624Z,80.46
2023-03-25T17:46:36.567Z,80.38
2023-03-25T17:49:15.095Z,80.44
2023-03-25T17:51:43.023Z,80.45
2023-03-25T17:54:11.378Z,80.10
2023-03-25T17:56:42.740Z,80.06
2023-03-25T17:59:16.963Z,80.01
2023-03-25T18:01:46.376Z,80.23
2023-03-25T18:04:15.504Z,80.37
2023-03-25T18:06:43.510Z,80.10
2023-03-25T18:09:17.418Z,80.20
2023-03-25T18:11:48.285Z,80.45
2023-03-25T18:14:16.446Z,80.25
2023-03-25T18:16:44.266Z,80.01
2023-03-25T18:19:16.658Z,79.98
2023-03-25T18:21:44.791Z,80.48
2023-03-25T18:24:13.508Z,80.37
2023-03-25T18:26:42.218Z,80.15
2023-03-25T18:29:13.652Z,80.22
2023-03-25T18:31:41.475Z,80.33
2023-03-25T18:34:11.247Z,80.64
2023-03-25T18:36:40.301Z,79.96
2023-03-25T18:39:12.686Z,80.16
2023-03-25T18:41:40.642Z,80.19
2023-03-25T18:44:08.508Z,80.45
2023-03-25T18:46:38.170Z,80.15
2023-03-25T18:49:12.118Z,80.16
2023-03-25T18:51:39.947Z,80.35
2023-03-25T18:54:07.752Z,80.38
2023-03-25T18:56:35.877Z,80.40
2023-03-25T18:59:04.356Z,80.35
2023-03-25T19:01:32.446Z,80.44
2023-03-25T19:04:03.303Z,80.15
2023-03-25T19:06:32.149Z,80.34
2023-03-25T19:09:00.074Z,80.52
2023-03-25T19:11:30.603Z,80.08
2023-03-25T19:13:59.248Z,80.34
2023-03-25T19:16:27.063Z,80.48
2023-03-25T19:18:54.796Z,80.46
2023-03-25T19:21:24.157Z,80.22
2023-03-25T19:23:52.832Z,80.35
2023-03-25T19:26:20.744Z,80.15
2023-03-25T19:28:48.538Z,80.63
2023-03-25T19:31:16.681Z,80.18
2023-03-25T19:33:44.562Z,80.09
2023-03-25T19:36:15.459Z,80.40
2023-03-25T19:38:44.724Z,80.28
2023-03-25T19:41:15.495Z,80.16
2023-03-25T19:43:43.388Z,80.23
2023-03-25T19:46:11.612Z,80.44
2023-03-25T19:48:40.356Z,80.22
2023-03-25T19:51:08.349Z,80.05
2023-03-25T19:53:37.529Z,80.38
2023-03-25T19:56:07.248Z,80.42
2023-03-25T19:58:35.610Z,80.25
2023-03-25T20:01:05.158Z,80.53
2023-03-25T20:03:33.108Z,80.21
2023-03-25T20:06:02.648Z,80.51
2023-03-25T20:08:32.006Z,80.68
2023-03-25T20:11:00.958Z,80.39
2023-03-25T20:13:32.077Z,80.32
2023-03-25T20:15:59.863Z,80.29
2023-03-25T20:18:28.163Z,80.47
2023-03-25T20:20:56.046Z,80.52
2023-03-25T20:23:23.853Z,80.26
2023-03-25T20:25:52.588Z,80.51
2023-03-25T20:28:20.535Z,80.15
2023-03-25T20:30:49.732Z,80.23
2023-03-25T20:33:17.862Z,80.28
2023-03-25T20:35:46.113Z,80.42
2023-03-25T20:38:14.283Z,80.26
2023-03-25T20:40:44.848Z,80.44
2023-03-25T20:43:14.279Z,80.30
2023-03-25T20:45:42.820Z,80.04
2023-03-25T20:48:12.136Z,80.31
2023-03-25T20:50:40.582Z,80.60
2023-03-25T20:53:08.987Z,80.49
2023-03-25T20:55:37.417Z,80.45
2023-03-25T20:58:05.938Z,80.63
2023-03-25T21:00:34.195Z,80.39
2023-03-25T21:03:03.151Z,80.40
2023-03-25T21:05:32.817Z,80.49
2023-03-25T21:08:00.673Z,80.65
2023-03-25T21:10:28.542Z,80.13
2023-03-25T21:12:56.487Z,80.29
2023-03-25T21:15:24.388Z,80.64
2023-03-25T21:17:54.413Z,80.50
2023-03-25T21:20:24.009Z,80.37
2023-03-25T21:22:57.053Z,80.70
2023-03-25T21:25:25.130Z,80.26
2023-03-25T21:27:54.040Z,80.42
2023-03-25T21:30:22.018Z,80.48
2023-03-25T21:32:49.858Z,80.38
2023-03-25T21:35:17.888Z,80.48
2023-03-25T21:37:47.043Z,79.94
2023-03-25T21:40:16.999Z,80.46
2023-03-25T21:42:46.067Z,80.31
2023-03-25T21:45:16.503Z,80.16
2023-03-25T21:47:45.293Z,80.55
2023-03-25T21:50:14.562Z,80.49
2023-03-25T21:52:46.715Z,80.33
2023-03-25T21:55:17.597Z,80.36
2023-03-25T21:57:47.796Z,80.75
2023-03-25T22:00:18.632Z,80.33
2023-03-25T22:02:48.210Z,80.43
2023-03-25T22:05:17.596Z,80.15
2023-03-25T22:07:46.101Z,80.58
2023-03-25T22:10:13.881Z,80.27
2023-03-25T22:12:42.985Z,80.44
2023-03-25T22:15:11.985Z,80.63
2023-03-25T22:17:39.921Z,80.53
2023-03-25T22:20:10.178Z,80.51
2023-03-25T22:22:38.262Z,80.56
2023-03-25T22:25:07.078Z,80.43
2023-03-25T22:27:34.816Z,80.18
2023-03-25T22:30:04.626Z,80.61
2023-03-25T22:32:35.346Z,80.50
2023-03-25T22:35:04.076Z,80.54
2023-03-25T22:37:32.309Z,80.53
2023-03-25T22:40:00.095Z,80.16
2023-03-25T22:42:29.617Z,80.41
2023-03-25T22:44:57.433Z,80.54
2023-03-25T22:47:26.585Z,80.65
2023-03-25T22:49:54.399Z,80.52
2023-03-25T22:52:22.407Z,80.45
2023-03-25T22:54:50.202Z,80.71
2023-03-25T22:57:19.020Z,80.80
2023-03-25T22:59:46.993Z,80.53
2023-03-25T23:02:16.606Z,80.49
2023-03-25T23:04:46.264Z,80.72
2023-03-25T23:07:14.503Z,80.43
2023-03-25T23:09:42.752Z,80.37
2023-03-25T23:12:12.226Z,80.39
2023-03-25T23:14:41.665Z,80.26
2023-03-25T23:17:11.981Z,80.45
2023-03-25T23:19:41.574Z,80.45
2023-03-25T23:22:10.806Z,80.60
2023-03-25T23:24:39.095Z,80.50
2023-03-25T23:27:08.456Z,80.64
2023-03-25T23:29:39.154Z,80.61
2023-03-25T23:32:08.939Z,80.22
2023-03-25T23:34:38.360Z,80.58
2023-03-25T23:37:09.202Z,80.75
2023-03-25T23:39:40.332Z,80.48
2023-03-25T23:42:08.666Z,80.61
2023-03-25T23:44:37.275Z,80.53
2023-03-25T23:47:06.120Z,80.37
2023-03-25T23:49:38.152Z,80.80
2023-03-25T23:52:11.029Z,80.41
2023-03-25T23:54:40.762Z,80.59
2023-03-25T23:57:08.661Z,80.32
2023-03-25T23:59:36.562Z,80.39
